createdAt,value
2018-09-30T00:02:29.791Z,4.87
2018-09-30T00:05:02.603Z,4.60
2018-09-30T00:07:33.994Z,5.03
2018-09-30T00:10:06.439Z,4.50
2018-09-30T00:12:37.386Z,4.23
2018-09-30T00:15:06.462Z,4.67
2018-09-30T00:17:36.434Z,4.30
2018-09-30T00:20:05.364Z,4.70
2018-09-30T00:22:34.335Z,5.00
2018-09-30T00:25:16.222Z,5.03
2018-09-30T00:28:03.856Z,5.03
2018-09-30T00:30:34.805Z,4.37
2018-09-30T00:33:06.810Z,4.27
2018-09-30T00:35:37.813Z,4.53
2018-09-30T00:38:18.330Z,4.17
2018-09-30T00:40:47.319Z,4.20
2018-09-30T00:43:20.434Z,3.70
2018-09-30T00:45:55.265Z,3.80
2018-09-30T00:48:37.094Z,3.47
2018-09-30T00:51:18.297Z,3.57
2018-09-30T00:53:47.194Z,3.93
2018-09-30T00:56:17.187Z,3.50
2018-09-30T00:58:46.211Z,3.47
2018-09-30T01:01:18.634Z,3.40
2018-09-30T01:03:47.841Z,3.80
2018-09-30T01:06:22.555Z,3.37
2018-09-30T01:08:51.930Z,2.80
2018-09-30T01:11:21.057Z,2.83
2018-09-30T01:13:54.901Z,2.53
2018-09-30T01:16:23.802Z,2.73
2018-09-30T01:18:52.753Z,2.87
2018-09-30T01:21:21.807Z,2.53
2018-09-30T01:23:50.761Z,2.70
2018-09-30T01:26:20.662Z,2.40
2018-09-30T01:28:49.591Z,2.43
2018-09-30T01:31:18.499Z,2.27
2018-09-30T01:33:53.086Z,2.40
2018-09-30T01:36:22.035Z,2.33
2018-09-30T01:39:08.247Z,2.70
2018-09-30T01:41:41.978Z,2.67
2018-09-30T01:44:10.971Z,2.87
2018-09-30T01:46:51.313Z,2.30
2018-09-30T01:49:20.205Z,2.63
2018-09-30T01:51:59.146Z,2.93
2018-09-30T01:54:28.014Z,2.90
2018-09-30T01:56:57.907Z,2.60
2018-09-30T01:59:34.518Z,2.63
2018-09-30T02:02:03.506Z,2.80
2018-09-30T02:04:44.571Z,2.50
2018-09-30T02:07:32.198Z,2.37
2018-09-30T02:10:01.084Z,2.43
2018-09-30T02:12:29.982Z,2.53
2018-09-30T02:15:01.123Z,2.60
2018-09-30T02:17:31.121Z,2.67
2018-09-30T02:20:00.035Z,2.27
2018-09-30T02:22:38.892Z,2.40
2018-09-30T02:25:07.850Z,2.13
2018-09-30T02:27:53.727Z,2.10
2018-09-30T02:30:40.518Z,2.50
2018-09-30T02:33:22.229Z,2.57
2018-09-30T02:35:51.139Z,2.70
2018-09-30T02:38:20.033Z,2.50
2018-09-30T02:40:56.019Z,2.40
2018-09-30T02:43:31.749Z,2.33
2018-09-30T02:46:02.664Z,2.60
2018-09-30T02:48:31.534Z,2.47
2018-09-30T02:51:00.414Z,2.60
2018-09-30T02:53:35.881Z,2.00
2018-09-30T02:56:10.481Z,2.13
2018-09-30T02:58:55.791Z,2.50
2018-09-30T03:01:30.625Z,2.63
2018-09-30T03:03:59.838Z,2.20
2018-09-30T03:06:37.981Z,2.30
2018-09-30T03:09:11.953Z,2.90
2018-09-30T03:11:41.221Z,2.47
2018-09-30T03:14:12.088Z,2.43
2018-09-30T03:16:42.597Z,2.60
2018-09-30T03:19:11.534Z,2.60
2018-09-30T03:21:40.419Z,3.30
2018-09-30T03:24:13.377Z,2.27
2018-09-30T03:26:52.636Z,2.30
2018-09-30T03:29:26.930Z,3.10
2018-09-30T03:31:55.824Z,2.30
2018-09-30T03:34:36.592Z,2.87
2018-09-30T03:37:05.528Z,2.37
2018-09-30T03:39:45.850Z,2.40
2018-09-30T03:42:14.726Z,2.57
2018-09-30T03:44:43.706Z,3.00
2018-09-30T03:47:12.626Z,2.27
2018-09-30T03:50:00.934Z,2.20
2018-09-30T03:52:29.894Z,2.80
2018-09-30T03:55:03.465Z,2.67
2018-09-30T03:57:32.363Z,2.50
2018-09-30T04:00:01.277Z,2.27
2018-09-30T04:02:35.256Z,2.17
2018-09-30T04:05:07.517Z,2.33
2018-09-30T04:07:52.897Z,2.97
2018-09-30T04:10:21.770Z,2.60
2018-09-30T04:12:52.730Z,2.40
2018-09-30T04:15:26.763Z,2.60
2018-09-30T04:18:08.723Z,2.47
2018-09-30T04:20:49.911Z,3.23
2018-09-30T04:23:19.830Z,2.53
2018-09-30T04:26:01.071Z,2.80
2018-09-30T04:28:37.496Z,2.30
2018-09-30T04:31:06.596Z,2.93
2018-09-30T04:33:36.474Z,2.90
2018-09-30T04:39:22.296Z,2.40
2018-09-30T04:41:52.492Z,2.93
2018-09-30T04:44:24.886Z,3.23
2018-09-30T04:46:53.884Z,2.80
2018-09-30T04:49:22.889Z,2.40
2018-09-30T04:51:51.867Z,2.70
2018-09-30T04:54:43.449Z,2.53
2018-09-30T04:57:18.681Z,2.73
2018-09-30T04:59:50.835Z,2.83
2018-09-30T05:02:26.154Z,2.60
2018-09-30T05:04:55.024Z,2.87
2018-09-30T05:07:23.934Z,2.40
2018-09-30T05:09:52.911Z,2.93
2018-09-30T05:12:21.799Z,2.60
2018-09-30T05:14:52.745Z,2.83
2018-09-30T05:17:23.677Z,2.73
2018-09-30T05:19:55.136Z,2.90
2018-09-30T05:22:24.156Z,2.70
2018-09-30T05:24:54.200Z,3.03
2018-09-30T05:33:15.496Z,3.10
2018-09-30T05:36:04.317Z,2.80
2018-09-30T05:38:34.266Z,2.83
2018-09-30T05:41:03.165Z,2.90
2018-09-30T05:43:32.160Z,2.77
2018-09-30T05:46:04.641Z,3.57
2018-09-30T05:48:44.009Z,3.30
2018-09-30T05:51:23.745Z,3.13
2018-09-30T05:53:58.162Z,3.40
2018-09-30T05:56:29.081Z,3.00
2018-09-30T05:58:59.991Z,3.30
2018-09-30T06:01:29.069Z,3.37
2018-09-30T06:03:58.040Z,2.83
2018-09-30T06:06:32.010Z,2.50
2018-09-30T06:09:06.087Z,2.83
2018-09-30T06:11:37.066Z,2.90
2018-09-30T06:14:06.174Z,3.30
2018-09-30T06:19:40.206Z,2.77
2018-09-30T06:22:16.388Z,2.90
2018-09-30T06:24:45.387Z,2.73
2018-09-30T06:27:16.400Z,3.00
2018-09-30T06:29:49.227Z,3.03
2018-09-30T06:32:22.174Z,2.73
2018-09-30T06:34:51.186Z,3.03
2018-09-30T06:37:21.495Z,2.93
2018-09-30T06:39:53.974Z,3.10
2018-09-30T06:42:32.479Z,3.00
2018-09-30T06:45:07.481Z,3.13
2018-09-30T06:47:44.146Z,3.43
2018-09-30T06:50:17.754Z,4.40
2018-09-30T06:52:47.901Z,4.40
2018-09-30T06:55:17.837Z,4.13
2018-09-30T06:57:46.819Z,4.20
2018-09-30T07:00:16.841Z,3.43
2018-09-30T07:02:49.409Z,4.03
2018-09-30T07:05:36.196Z,3.50
2018-09-30T07:08:07.122Z,3.23
2018-09-30T07:10:36.010Z,2.90
2018-09-30T07:13:09.986Z,2.83
2018-09-30T07:15:45.559Z,2.83
2018-09-30T07:18:18.713Z,2.80
2018-09-30T07:20:49.683Z,2.80
2018-09-30T07:23:34.882Z,2.93
2018-09-30T07:26:05.854Z,3.00
2018-09-30T07:28:34.832Z,2.83
2018-09-30T07:31:04.728Z,3.00
2018-09-30T07:33:34.698Z,2.70
2018-09-30T07:36:06.703Z,2.70
2018-09-30T07:38:35.621Z,2.77
2018-09-30T07:41:04.612Z,3.10
2018-09-30T07:43:39.571Z,2.70
2018-09-30T07:46:08.813Z,3.10
2018-09-30T07:48:37.783Z,2.87
2018-09-30T07:51:22.762Z,3.10
2018-09-30T07:54:02.171Z,3.10
2018-09-30T07:56:32.324Z,2.93
2018-09-30T07:59:05.988Z,3.03
2018-09-30T08:01:38.869Z,3.33
2018-09-30T08:04:08.003Z,2.67
2018-09-30T08:06:41.903Z,3.10
2018-09-30T08:09:11.065Z,2.63
2018-09-30T08:11:46.429Z,2.80
2018-09-30T08:14:31.764Z,2.90
2018-09-30T08:17:07.083Z,3.17
2018-09-30T08:19:48.356Z,3.10
2018-09-30T08:22:31.199Z,2.90
2018-09-30T08:25:02.169Z,2.83
2018-09-30T08:27:34.523Z,2.90
2018-09-30T08:30:10.182Z,2.90
2018-09-30T08:32:43.194Z,3.53
2018-09-30T08:35:12.153Z,2.90
2018-09-30T08:37:47.390Z,3.07
2018-09-30T08:40:32.523Z,3.40
2018-09-30T08:43:04.657Z,4.20
2018-09-30T08:45:33.826Z,4.00
2018-09-30T08:48:03.699Z,3.97
2018-09-30T08:50:38.249Z,3.73
2018-09-30T08:53:07.322Z,4.40
2018-09-30T08:55:46.647Z,4.10
2018-09-30T08:58:19.059Z,4.40
2018-09-30T09:00:49.729Z,4.73
2018-09-30T09:03:20.791Z,4.50
2018-09-30T09:05:49.934Z,4.80
2018-09-30T09:08:26.741Z,4.13
2018-09-30T09:11:07.657Z,4.60
2018-09-30T09:13:40.957Z,4.70
2018-09-30T09:16:12.139Z,5.30
2018-09-30T09:18:47.511Z,5.00
2018-09-30T09:21:16.510Z,5.10
2018-09-30T09:23:45.433Z,5.20
2018-09-30T09:26:14.325Z,5.40
2018-09-30T09:28:43.266Z,5.53
2018-09-30T09:31:14.241Z,6.17
2018-09-30T09:34:01.620Z,6.07
2018-09-30T09:36:33.732Z,6.70
2018-09-30T09:39:06.115Z,6.67
2018-09-30T09:41:35.171Z,5.90
2018-09-30T09:44:04.268Z,6.30
2018-09-30T09:46:33.316Z,6.97
2018-09-30T09:49:02.625Z,5.60
2018-09-30T09:51:31.621Z,6.63
2018-09-30T09:54:00.495Z,6.30
2018-09-30T09:56:35.726Z,6.30
2018-09-30T09:59:04.739Z,5.83
2018-09-30T10:01:33.589Z,5.90
2018-09-30T10:04:10.848Z,6.00
2018-09-30T10:06:39.770Z,6.83
2018-09-30T10:09:08.709Z,6.63
2018-09-30T10:11:37.625Z,5.77
2018-09-30T10:14:06.620Z,5.83
2018-09-30T10:16:40.472Z,5.83
2018-09-30T10:19:09.422Z,5.57
2018-09-30T10:21:38.538Z,5.67
2018-09-30T10:24:12.431Z,6.43
2018-09-30T10:26:46.331Z,5.40
2018-09-30T10:29:15.403Z,6.37
2018-09-30T10:31:44.957Z,6.73
2018-09-30T10:34:14.407Z,5.77
2018-09-30T10:36:43.323Z,5.43
2018-09-30T10:39:12.424Z,5.10
2018-09-30T10:41:41.469Z,4.57
2018-09-30T10:44:10.481Z,4.50
2018-09-30T10:46:39.424Z,4.23
2018-09-30T10:49:09.053Z,5.07
2018-09-30T10:51:42.437Z,5.70
2018-09-30T10:54:13.582Z,5.57
2018-09-30T10:56:42.708Z,5.00
2018-09-30T10:59:11.580Z,4.77
2018-09-30T11:01:58.617Z,4.37
2018-09-30T11:04:27.518Z,3.80
2018-09-30T11:06:56.406Z,3.50
2018-09-30T11:09:25.422Z,4.33
2018-09-30T11:11:58.346Z,4.73
2018-09-30T11:14:34.648Z,3.83
2018-09-30T11:17:03.613Z,2.90
2018-09-30T11:19:32.528Z,3.73
2018-09-30T11:22:01.517Z,3.20
2018-09-30T11:24:36.052Z,3.60
2018-09-30T11:27:06.248Z,3.70
2018-09-30T11:29:57.881Z,3.00
2018-09-30T11:32:44.539Z,3.80
2018-09-30T11:35:17.780Z,3.47
2018-09-30T11:37:58.014Z,4.07
2018-09-30T11:40:27.474Z,2.93
2018-09-30T11:43:01.106Z,3.73
2018-09-30T11:45:31.119Z,3.03
2018-09-30T11:48:16.029Z,3.30
2018-09-30T11:50:44.944Z,2.97
2018-09-30T11:53:29.863Z,2.93
2018-09-30T11:56:04.331Z,3.00
2018-09-30T11:58:44.338Z,2.83
2018-09-30T12:01:27.461Z,2.80
2018-09-30T12:03:56.358Z,2.77
2018-09-30T12:06:25.262Z,3.47
2018-09-30T12:08:54.490Z,2.43
2018-09-30T12:11:23.396Z,3.00
2018-09-30T12:13:52.276Z,4.03
2018-09-30T12:16:34.636Z,4.03
2018-09-30T12:19:03.561Z,3.43
2018-09-30T12:21:32.460Z,3.80
2018-09-30T12:24:01.382Z,4.30
2018-09-30T12:26:30.369Z,5.70
2018-09-30T12:29:17.107Z,6.03
2018-09-30T12:31:49.318Z,7.40
2018-09-30T12:34:18.239Z,6.27
2018-09-30T12:36:47.170Z,6.10
2018-09-30T12:39:16.443Z,5.77
2018-09-30T12:41:52.852Z,5.10
2018-09-30T12:44:21.753Z,4.93
2018-09-30T12:49:44.199Z,6.43
2018-09-30T12:52:17.782Z,4.90
2018-09-30T12:54:56.990Z,3.77
2018-09-30T12:57:26.980Z,3.77
2018-09-30T13:00:14.162Z,4.17
2018-09-30T13:02:49.664Z,4.93
2018-09-30T13:05:30.924Z,3.60
2018-09-30T13:07:59.957Z,2.50
2018-09-30T13:10:28.913Z,3.97
2018-09-30T13:12:59.924Z,3.43
2018-09-30T13:15:29.657Z,3.60
2018-09-30T13:17:59.634Z,3.40
2018-09-30T13:20:29.702Z,3.90
2018-09-30T13:23:01.975Z,3.67
2018-09-30T13:25:32.973Z,3.20
2018-09-30T13:28:01.940Z,3.03
2018-09-30T13:30:51.557Z,3.07
2018-09-30T13:33:20.539Z,2.77
2018-09-30T13:35:49.505Z,2.60
2018-09-30T13:38:18.443Z,3.17
2018-09-30T13:40:48.560Z,2.70
2018-09-30T13:43:22.003Z,2.37
2018-09-30T13:46:03.924Z,2.87
2018-09-30T13:48:34.794Z,2.43
2018-09-30T13:51:06.031Z,2.57
2018-09-30T13:53:41.093Z,3.00
2018-09-30T13:56:32.574Z,3.30
2018-09-30T13:59:22.348Z,2.47
2018-09-30T14:01:52.348Z,2.47
2018-09-30T14:04:25.275Z,2.50
2018-09-30T14:06:57.406Z,3.17
2018-09-30T14:09:26.355Z,3.07
2018-09-30T14:11:58.845Z,3.10
2018-09-30T14:14:45.608Z,2.90
2018-09-30T14:17:15.564Z,2.50
2018-09-30T14:19:52.449Z,2.67
2018-09-30T14:22:23.641Z,2.90
2018-09-30T14:24:57.738Z,2.90
2018-09-30T14:27:40.850Z,2.23
2018-09-30T14:30:09.805Z,3.37
2018-09-30T14:32:39.740Z,2.73
2018-09-30T14:35:11.798Z,3.17
2018-09-30T14:37:41.791Z,3.00
2018-09-30T14:40:11.745Z,3.90
2018-09-30T14:42:41.824Z,3.13
2018-09-30T14:45:11.844Z,3.40
2018-09-30T14:47:41.839Z,3.57
2018-09-30T14:50:11.890Z,3.10
2018-09-30T14:52:46.820Z,2.80
2018-09-30T14:55:15.818Z,2.93
2018-09-30T14:57:45.829Z,3.27
2018-09-30T15:00:14.847Z,3.10
2018-09-30T15:02:49.611Z,3.50
2018-09-30T15:05:18.540Z,4.20
2018-09-30T15:07:47.517Z,3.50
2018-09-30T15:10:16.546Z,3.03
2018-09-30T15:12:47.057Z,3.10
2018-09-30T15:15:21.888Z,3.20
2018-09-30T15:17:50.996Z,3.40
2018-09-30T15:20:24.246Z,3.40
2018-09-30T15:22:53.137Z,3.27
2018-09-30T15:25:32.836Z,3.93
2018-09-30T15:28:03.768Z,3.80
2018-09-30T15:30:39.726Z,3.63
2018-09-30T15:33:10.756Z,3.30
2018-09-30T15:35:40.644Z,3.63
2018-09-30T15:38:14.317Z,3.50
2018-09-30T15:40:44.318Z,3.27
2018-09-30T15:43:14.478Z,3.13
2018-09-30T15:45:47.093Z,3.60
2018-09-30T15:48:19.799Z,3.70
2018-09-30T15:50:52.742Z,3.40
2018-09-30T15:53:21.919Z,3.77
2018-09-30T15:55:57.088Z,4.20
2018-09-30T15:58:27.020Z,3.63
2018-09-30T16:00:56.073Z,3.83
2018-09-30T16:03:25.494Z,3.70
2018-09-30T16:06:07.717Z,4.07
2018-09-30T16:08:38.483Z,4.10
2018-09-30T16:11:07.964Z,4.27
2018-09-30T16:13:38.949Z,3.90
2018-09-30T16:16:08.126Z,4.50
2018-09-30T16:18:41.064Z,4.50
2018-09-30T16:21:14.147Z,5.30
2018-09-30T16:23:43.057Z,5.30
2018-09-30T16:26:13.980Z,6.77
2018-09-30T16:28:43.011Z,5.80
2018-09-30T16:31:11.949Z,6.40
2018-09-30T16:33:48.890Z,7.33
2018-09-30T16:36:18.972Z,6.90
2018-09-30T16:41:43.489Z,6.27
2018-09-30T16:44:14.576Z,6.03
2018-09-30T16:46:47.250Z,6.30
2018-09-30T16:49:16.370Z,6.70
2018-09-30T16:51:49.620Z,6.50
2018-09-30T16:54:18.564Z,6.43
2018-09-30T16:56:48.820Z,6.03
2018-09-30T16:59:28.341Z,6.43
2018-09-30T17:01:59.715Z,6.97
2018-09-30T17:04:32.372Z,6.83
2018-09-30T17:07:11.410Z,5.63
2018-09-30T17:09:42.004Z,6.70
2018-09-30T17:12:12.540Z,6.13
2018-09-30T17:14:43.004Z,6.67
2018-09-30T17:17:15.703Z,6.90
2018-09-30T17:19:48.861Z,6.30
2018-09-30T17:22:25.272Z,5.87
2018-09-30T17:24:54.238Z,5.30
2018-09-30T17:27:25.338Z,5.60
2018-09-30T17:29:58.280Z,6.20
2018-09-30T17:32:31.229Z,6.43
2018-09-30T17:35:00.267Z,6.27
2018-09-30T17:37:31.199Z,6.30
2018-09-30T17:40:00.116Z,6.20
2018-09-30T17:42:30.044Z,6.43
2018-09-30T17:44:59.016Z,6.17
2018-09-30T17:47:31.248Z,6.27
2018-09-30T17:50:04.146Z,6.03
2018-09-30T17:52:33.033Z,5.97
2018-09-30T17:55:01.979Z,6.63
2018-09-30T17:57:31.005Z,6.70
2018-09-30T18:00:05.312Z,6.60
2018-09-30T18:02:35.269Z,5.50
2018-09-30T18:05:05.424Z,4.93
2018-09-30T18:07:34.364Z,5.33
2018-09-30T18:10:03.270Z,4.67
2018-09-30T18:12:35.894Z,5.07
2018-09-30T18:15:13.231Z,4.93
2018-09-30T18:17:42.282Z,5.30
2018-09-30T18:20:14.494Z,5.17
2018-09-30T18:22:43.846Z,4.90
2018-09-30T18:25:13.109Z,5.13
2018-09-30T18:27:42.495Z,4.90
2018-09-30T18:30:12.153Z,5.37
2018-09-30T18:32:43.276Z,5.63
2018-09-30T18:35:12.186Z,5.70
2018-09-30T18:37:44.949Z,5.07
2018-09-30T18:40:13.928Z,5.73
2018-09-30T18:42:43.742Z,5.20
2018-09-30T18:45:17.997Z,4.83
2018-09-30T18:47:47.909Z,4.83
2018-09-30T18:50:16.864Z,5.10
2018-09-30T18:52:48.992Z,4.70
2018-09-30T18:55:18.924Z,5.00
2018-09-30T18:57:47.877Z,3.80
2018-09-30T19:00:16.761Z,5.20
2018-09-30T19:02:58.153Z,4.30
2018-09-30T19:05:28.198Z,4.53
2018-09-30T19:07:57.438Z,4.50
2018-09-30T19:10:26.455Z,4.80
2018-09-30T19:13:06.197Z,5.20
2018-09-30T19:15:39.143Z,5.17
2018-09-30T19:18:10.135Z,5.40
2018-09-30T19:20:39.271Z,5.30
2018-09-30T19:23:08.834Z,5.37
2018-09-30T19:25:40.001Z,5.53
2018-09-30T19:28:09.225Z,5.73
2018-09-30T19:30:38.293Z,5.57
2018-09-30T19:33:07.398Z,5.80
2018-09-30T19:35:42.168Z,5.60
2018-09-30T19:38:16.645Z,5.67
2018-09-30T19:40:46.694Z,6.70
2018-09-30T19:43:15.853Z,8.63
2018-09-30T19:45:46.066Z,7.80
2018-09-30T19:48:15.121Z,7.33
2018-09-30T19:50:44.132Z,8.13
2018-09-30T19:53:13.829Z,8.20
2018-09-30T19:55:45.826Z,8.07
2018-09-30T19:58:15.754Z,7.33
2018-09-30T20:01:06.851Z,7.63
2018-09-30T20:03:46.121Z,6.50
2018-09-30T20:06:15.051Z,6.00
2018-09-30T20:08:45.010Z,5.50
2018-09-30T20:11:16.005Z,5.97
2018-09-30T20:13:44.969Z,5.60
2018-09-30T20:16:15.880Z,5.67
2018-09-30T20:18:47.004Z,5.30
2018-09-30T20:21:16.240Z,5.50
2018-09-30T20:23:45.189Z,5.10
2018-09-30T20:26:14.091Z,5.27
2018-09-30T20:28:43.250Z,4.83
2018-09-30T20:34:31.490Z,5.47
2018-09-30T20:37:03.792Z,4.80
2018-09-30T20:39:39.927Z,4.87
2018-09-30T20:42:13.683Z,5.10
2018-09-30T20:44:44.830Z,4.63
2018-09-30T20:47:14.894Z,4.77
2018-09-30T20:49:48.411Z,4.60
2018-09-30T20:52:29.723Z,4.73
2018-09-30T20:55:09.866Z,5.27
2018-09-30T20:57:42.868Z,4.67
2018-09-30T21:00:30.907Z,4.90
2018-09-30T21:03:10.273Z,5.50
2018-09-30T21:05:50.267Z,5.57
2018-09-30T21:08:21.662Z,5.00
2018-09-30T21:10:54.814Z,5.13
2018-09-30T21:13:23.732Z,4.57
2018-09-30T21:15:53.689Z,4.20
2018-09-30T21:18:26.041Z,4.07
2018-09-30T21:21:04.994Z,4.10
2018-09-30T21:23:37.292Z,4.97
2018-09-30T21:26:06.359Z,4.10
2018-09-30T21:28:39.962Z,3.73
2018-09-30T21:31:27.949Z,4.57
2018-09-30T21:34:00.738Z,4.70
2018-09-30T21:36:30.767Z,4.23
2018-09-30T21:39:00.723Z,4.20
2018-09-30T21:41:43.694Z,3.60
2018-09-30T21:44:16.520Z,3.70
2018-09-30T21:46:45.512Z,3.90
2018-09-30T21:49:24.980Z,3.97
2018-09-30T21:51:53.837Z,3.90
2018-09-30T21:54:28.337Z,4.33
2018-09-30T21:57:03.209Z,4.30
2018-09-30T21:59:38.224Z,4.43
2018-09-30T22:02:21.063Z,4.67
2018-09-30T22:04:59.585Z,4.13
2018-09-30T22:07:34.210Z,4.20
2018-09-30T22:10:08.269Z,3.90
2018-09-30T22:12:44.577Z,4.03
2018-09-30T22:15:13.594Z,4.37
2018-09-30T22:17:42.614Z,3.97
2018-09-30T22:20:12.568Z,4.73
2018-09-30T22:22:55.444Z,4.03
2018-09-30T22:25:24.474Z,4.23
2018-09-30T22:27:53.394Z,4.27
2018-09-30T22:30:22.266Z,4.47
2018-09-30T22:32:51.180Z,4.93
2018-09-30T22:35:43.659Z,4.90
2018-09-30T22:38:12.519Z,4.80
2018-09-30T22:40:46.232Z,4.77
2018-09-30T22:43:15.195Z,5.27
2018-09-30T22:48:44.610Z,5.47
2018-09-30T22:51:19.184Z,4.83
2018-09-30T22:53:49.143Z,4.90
2018-09-30T22:56:23.899Z,5.23
2018-09-30T22:58:52.789Z,4.70
2018-09-30T23:01:21.678Z,5.80
2018-09-30T23:04:01.693Z,5.40
2018-09-30T23:06:38.457Z,5.40
2018-09-30T23:09:07.901Z,4.90
2018-09-30T23:11:36.883Z,5.37
2018-09-30T23:14:07.139Z,5.00
2018-09-30T23:16:36.074Z,5.43
2018-09-30T23:19:04.971Z,4.63
2018-09-30T23:21:33.890Z,5.20
2018-09-30T23:24:02.805Z,5.13
2018-09-30T23:26:31.689Z,5.40
2018-09-30T23:29:00.570Z,5.27
2018-09-30T23:31:29.489Z,5.70
2018-09-30T23:33:58.421Z,5.00
2018-09-30T23:36:30.915Z,5.70
2018-09-30T23:39:02.990Z,5.33
2018-09-30T23:41:32.100Z,5.70
2018-09-30T23:44:00.998Z,5.43
2018-09-30T23:46:29.878Z,5.83
2018-09-30T23:52:17.229Z,6.17
2018-09-30T23:54:52.463Z,5.87
2018-09-30T23:57:25.370Z,5.47
2018-09-30T23:59:54.359Z,5.73
